sensor_id;sensor_type;location;lat;lon;timestamp;P1;durP1;ratioP1;P2;durP2;ratioP2
64459;SDS011;50828;53.756;21.140;2023-03-14T00:04:56;25.10;;;10.40;;
64459;SDS011;50828;53.756;21.140;2023-03-14T00:10:05;26.80;;;9.70;;
64459;SDS011;50828;53.756;21.140;2023-03-14T00:15:15;21.20;;;9.40;;
64459;SDS011;50828;53.756;21.140;2023-03-14T00:20:24;19.70;;;10.00;;
64459;SDS011;50828;53.756;21.140;2023-03-14T00:25:31;20.50;;;9.50;;
64459;SDS011;50828;53.756;21.140;2023-03-14T00:30:40;19.80;;;9.70;;
64459;SDS011;50828;53.756;21.140;2023-03-14T00:35:54;20.70;;;9.50;;
64459;SDS011;50828;53.756;21.140;2023-03-14T00:41:07;21.70;;;10.70;;
64459;SDS011;50828;53.756;21.140;2023-03-14T00:46:18;20.20;;;10.20;;
64459;SDS011;50828;53.756;21.140;2023-03-14T00:51:25;20.20;;;9.20;;
64459;SDS011;50828;53.756;21.140;2023-03-14T00:56:34;21.20;;;9.60;;
64459;SDS011;50828;53.756;21.140;2023-03-14T01:01:42;15.80;;;9.60;;
64459;SDS011;50828;53.756;21.140;2023-03-14T01:06:51;19.20;;;9.60;;
64459;SDS011;50828;53.756;21.140;2023-03-14T01:11:59;22.30;;;9.90;;
64459;SDS011;50828;53.756;21.140;2023-03-14T01:17:08;15.20;;;9.30;;
64459;SDS011;50828;53.756;21.140;2023-03-14T01:22:16;17.50;;;9.70;;
64459;SDS011;50828;53.756;21.140;2023-03-14T01:27:25;19.00;;;9.30;;
64459;SDS011;50828;53.756;21.140;2023-03-14T01:32:34;18.80;;;8.90;;
64459;SDS011;50828;53.756;21.140;2023-03-14T01:37:43;15.70;;;9.10;;
64459;SDS011;50828;53.756;21.140;2023-03-14T01:43:04;24.90;;;9.80;;
64459;SDS011;50828;53.756;21.140;2023-03-14T01:48:20;17.80;;;9.70;;
64459;SDS011;50828;53.756;21.140;2023-03-14T01:53:29;18.70;;;8.40;;
64459;SDS011;50828;53.756;21.140;2023-03-14T01:58:38;17.70;;;8.70;;
64459;SDS011;50828;53.756;21.140;2023-03-14T02:03:49;16.20;;;8.50;;
64459;SDS011;50828;53.756;21.140;2023-03-14T02:09:00;23.40;;;9.20;;
64459;SDS011;50828;53.756;21.140;2023-03-14T02:14:13;20.00;;;9.00;;
64459;SDS011;50828;53.756;21.140;2023-03-14T02:19:50;20.50;;;8.90;;
64459;SDS011;50828;53.756;21.140;2023-03-14T02:25:24;20.00;;;8.10;;
64459;SDS011;50828;53.756;21.140;2023-03-14T02:30:39;15.90;;;7.80;;
64459;SDS011;50828;53.756;21.140;2023-03-14T02:35:50;14.00;;;7.70;;
64459;SDS011;50828;53.756;21.140;2023-03-14T02:41:02;15.10;;;7.90;;
64459;SDS011;50828;53.756;21.140;2023-03-14T02:46:16;14.40;;;7.80;;
64459;SDS011;50828;53.756;21.140;2023-03-14T02:51:26;19.40;;;8.40;;
64459;SDS011;50828;53.756;21.140;2023-03-14T02:56:34;21.40;;;8.20;;
64459;SDS011;50828;53.756;21.140;2023-03-14T03:01:43;15.70;;;7.90;;
64459;SDS011;50828;53.756;21.140;2023-03-14T03:06:51;15.40;;;7.30;;
64459;SDS011;50828;53.756;21.140;2023-03-14T03:12:00;16.90;;;7.30;;
64459;SDS011;50828;53.756;21.140;2023-03-14T03:17:09;15.40;;;7.20;;
64459;SDS011;50828;53.756;21.140;2023-03-14T03:22:18;15.50;;;7.30;;
64459;SDS011;50828;53.756;21.140;2023-03-14T03:27:26;15.80;;;7.00;;
64459;SDS011;50828;53.756;21.140;2023-03-14T03:32:35;14.30;;;7.20;;
64459;SDS011;50828;53.756;21.140;2023-03-14T03:37:44;17.60;;;6.70;;
64459;SDS011;50828;53.756;21.140;2023-03-14T03:42:52;15.90;;;7.00;;
64459;SDS011;50828;53.756;21.140;2023-03-14T03:48:01;15.80;;;7.20;;
64459;SDS011;50828;53.756;21.140;2023-03-14T03:53:10;12.90;;;6.40;;
64459;SDS011;50828;53.756;21.140;2023-03-14T03:58:28;17.20;;;6.80;;
64459;SDS011;50828;53.756;21.140;2023-03-14T04:03:37;19.00;;;6.60;;
64459;SDS011;50828;53.756;21.140;2023-03-14T04:08:46;10.90;;;5.70;;
64459;SDS011;50828;53.756;21.140;2023-03-14T04:14:14;12.60;;;6.50;;
64459;SDS011;50828;53.756;21.140;2023-03-14T04:19:23;12.90;;;6.40;;
64459;SDS011;50828;53.756;21.140;2023-03-14T04:24:33;14.40;;;6.60;;
64459;SDS011;50828;53.756;21.140;2023-03-14T04:29:41;13.30;;;6.40;;
64459;SDS011;50828;53.756;21.140;2023-03-14T04:34:52;14.90;;;5.90;;
64459;SDS011;50828;53.756;21.140;2023-03-14T04:40:01;14.10;;;6.70;;
64459;SDS011;50828;53.756;21.140;2023-03-14T04:45:11;13.00;;;6.10;;
64459;SDS011;50828;53.756;21.140;2023-03-14T04:50:21;12.60;;;6.30;;
64459;SDS011;50828;53.756;21.140;2023-03-14T04:55:28;11.40;;;5.60;;
64459;SDS011;50828;53.756;21.140;2023-03-14T05:00:36;14.40;;;6.80;;
64459;SDS011;50828;53.756;21.140;2023-03-14T05:05:55;14.20;;;6.10;;
64459;SDS011;50828;53.756;21.140;2023-03-14T05:11:21;16.10;;;6.20;;
64459;SDS011;50828;53.756;21.140;2023-03-14T05:16:48;10.20;;;5.60;;
64459;SDS011;50828;53.756;21.140;2023-03-14T05:22:19;10.80;;;6.60;;
64459;SDS011;50828;53.756;21.140;2023-03-14T05:27:48;10.10;;;5.70;;
64459;SDS011;50828;53.756;21.140;2023-03-14T05:33:29;14.30;;;6.90;;
64459;SDS011;50828;53.756;21.140;2023-03-14T05:39:03;13.10;;;6.10;;
64459;SDS011;50828;53.756;21.140;2023-03-14T05:44:30;16.10;;;6.00;;
64459;SDS011;50828;53.756;21.140;2023-03-14T05:50:00;11.40;;;6.60;;
64459;SDS011;50828;53.756;21.140;2023-03-14T05:55:38;15.10;;;6.40;;
64459;SDS011;50828;53.756;21.140;2023-03-14T06:01:07;17.00;;;7.50;;
64459;SDS011;50828;53.756;21.140;2023-03-14T06:06:37;15.70;;;7.20;;
64459;SDS011;50828;53.756;21.140;2023-03-14T06:11:46;16.50;;;7.10;;
64459;SDS011;50828;53.756;21.140;2023-03-14T06:16:55;15.30;;;6.20;;
64459;SDS011;50828;53.756;21.140;2023-03-14T06:22:07;20.50;;;7.60;;
64459;SDS011;50828;53.756;21.140;2023-03-14T06:27:16;15.80;;;7.90;;
64459;SDS011;50828;53.756;21.140;2023-03-14T06:32:25;14.20;;;7.40;;
64459;SDS011;50828;53.756;21.140;2023-03-14T06:37:37;17.00;;;7.40;;
64459;SDS011;50828;53.756;21.140;2023-03-14T06:42:46;15.90;;;8.00;;
64459;SDS011;50828;53.756;21.140;2023-03-14T06:47:55;16.60;;;7.70;;
64459;SDS011;50828;53.756;21.140;2023-03-14T06:53:11;16.90;;;8.30;;
64459;SDS011;50828;53.756;21.140;2023-03-14T06:58:20;15.70;;;8.20;;
64459;SDS011;50828;53.756;21.140;2023-03-14T07:03:28;18.10;;;8.30;;
64459;SDS011;50828;53.756;21.140;2023-03-14T07:08:37;16.70;;;8.60;;
64459;SDS011;50828;53.756;21.140;2023-03-14T07:13:48;19.90;;;8.00;;
64459;SDS011;50828;53.756;21.140;2023-03-14T07:18:57;18.50;;;8.50;;
64459;SDS011;50828;53.756;21.140;2023-03-14T07:24:06;18.60;;;8.60;;
64459;SDS011;50828;53.756;21.140;2023-03-14T07:29:15;18.50;;;8.70;;
64459;SDS011;50828;53.756;21.140;2023-03-14T07:34:24;16.90;;;7.60;;
64459;SDS011;50828;53.756;21.140;2023-03-14T07:39:33;15.00;;;7.80;;
64459;SDS011;50828;53.756;21.140;2023-03-14T07:44:47;18.80;;;8.70;;
64459;SDS011;50828;53.756;21.140;2023-03-14T07:49:56;16.20;;;7.90;;
64459;SDS011;50828;53.756;21.140;2023-03-14T07:55:06;18.40;;;9.50;;
64459;SDS011;50828;53.756;21.140;2023-03-14T08:00:19;18.70;;;8.20;;
64459;SDS011;50828;53.756;21.140;2023-03-14T08:05:29;17.50;;;7.70;;
64459;SDS011;50828;53.756;21.140;2023-03-14T08:10:37;21.30;;;9.20;;
64459;SDS011;50828;53.756;21.140;2023-03-14T08:15:46;17.10;;;8.00;;
64459;SDS011;50828;53.756;21.140;2023-03-14T08:20:55;24.20;;;8.90;;
64459;SDS011;50828;53.756;21.140;2023-03-14T08:26:05;18.20;;;7.80;;
64459;SDS011;50828;53.756;21.140;2023-03-14T08:31:14;16.50;;;8.50;;
64459;SDS011;50828;53.756;21.140;2023-03-14T08:36:22;20.60;;;8.90;;
64459;SDS011;50828;53.756;21.140;2023-03-14T08:41:31;17.50;;;8.00;;
64459;SDS011;50828;53.756;21.140;2023-03-14T08:46:44;17.80;;;8.50;;
64459;SDS011;50828;53.756;21.140;2023-03-14T08:51:53;18.10;;;8.10;;
64459;SDS011;50828;53.756;21.140;2023-03-14T08:57:01;21.80;;;7.10;;
64459;SDS011;50828;53.756;21.140;2023-03-14T09:02:11;20.60;;;8.40;;
64459;SDS011;50828;53.756;21.140;2023-03-14T09:07:25;17.40;;;7.60;;
64459;SDS011;50828;53.756;21.140;2023-03-14T09:12:35;18.50;;;7.80;;
64459;SDS011;50828;53.756;21.140;2023-03-14T09:17:44;22.50;;;9.10;;
64459;SDS011;50828;53.756;21.140;2023-03-14T09:22:53;17.40;;;8.60;;
64459;SDS011;50828;53.756;21.140;2023-03-14T09:28:01;18.80;;;7.20;;
64459;SDS011;50828;53.756;21.140;2023-03-14T09:33:10;18.20;;;8.50;;
64459;SDS011;50828;53.756;21.140;2023-03-14T09:38:17;16.10;;;7.60;;
64459;SDS011;50828;53.756;21.140;2023-03-14T09:43:27;15.40;;;7.30;;
64459;SDS011;50828;53.756;21.140;2023-03-14T09:53:47;16.30;;;7.80;;
64459;SDS011;50828;53.756;21.140;2023-03-14T09:58:56;17.80;;;8.10;;
64459;SDS011;50828;53.756;21.140;2023-03-14T10:04:10;15.60;;;7.30;;
64459;SDS011;50828;53.756;21.140;2023-03-14T10:09:22;20.30;;;7.60;;
64459;SDS011;50828;53.756;21.140;2023-03-14T10:14:32;16.00;;;7.50;;
64459;SDS011;50828;53.756;21.140;2023-03-14T10:19:51;16.00;;;7.00;;
64459;SDS011;50828;53.756;21.140;2023-03-14T10:25:01;17.00;;;7.30;;
64459;SDS011;50828;53.756;21.140;2023-03-14T10:30:27;20.60;;;7.90;;
64459;SDS011;50828;53.756;21.140;2023-03-14T10:35:53;18.80;;;7.60;;
64459;SDS011;50828;53.756;21.140;2023-03-14T10:41:03;14.60;;;6.50;;
64459;SDS011;50828;53.756;21.140;2023-03-14T10:46:25;15.60;;;7.20;;
64459;SDS011;50828;53.756;21.140;2023-03-14T10:52:17;15.90;;;7.70;;
64459;SDS011;50828;53.756;21.140;2023-03-14T10:57:39;14.40;;;6.80;;
64459;SDS011;50828;53.756;21.140;2023-03-14T11:02:55;14.40;;;6.90;;
64459;SDS011;50828;53.756;21.140;2023-03-14T11:08:16;14.80;;;7.90;;
64459;SDS011;50828;53.756;21.140;2023-03-14T11:13:32;15.70;;;6.20;;
64459;SDS011;50828;53.756;21.140;2023-03-14T11:18:53;19.40;;;6.60;;
64459;SDS011;50828;53.756;21.140;2023-03-14T11:29:50;15.00;;;6.10;;
64459;SDS011;50828;53.756;21.140;2023-03-14T11:35:08;12.40;;;6.70;;
64459;SDS011;50828;53.756;21.140;2023-03-14T11:40:26;14.50;;;6.20;;
64459;SDS011;50828;53.756;21.140;2023-03-14T11:45:35;14.70;;;6.00;;
64459;SDS011;50828;53.756;21.140;2023-03-14T11:50:46;14.80;;;6.50;;
64459;SDS011;50828;53.756;21.140;2023-03-14T11:55:57;13.40;;;6.20;;
64459;SDS011;50828;53.756;21.140;2023-03-14T12:01:06;11.90;;;6.10;;
64459;SDS011;50828;53.756;21.140;2023-03-14T12:06:17;17.60;;;6.80;;
64459;SDS011;50828;53.756;21.140;2023-03-14T12:11:34;11.70;;;5.70;;
64459;SDS011;50828;53.756;21.140;2023-03-14T12:16:47;9.80;;;5.50;;
64459;SDS011;50828;53.756;21.140;2023-03-14T12:38:54;13.30;;;6.10;;
64459;SDS011;50828;53.756;21.140;2023-03-14T12:49:50;12.30;;;5.90;;
64459;SDS011;50828;53.756;21.140;2023-03-14T12:55:01;14.00;;;6.10;;
64459;SDS011;50828;53.756;21.140;2023-03-14T13:00:18;14.00;;;6.20;;
64459;SDS011;50828;53.756;21.140;2023-03-14T13:05:30;13.20;;;6.30;;
64459;SDS011;50828;53.756;21.140;2023-03-14T13:10:44;15.80;;;6.30;;
64459;SDS011;50828;53.756;21.140;2023-03-14T13:15:56;16.50;;;7.30;;
64459;SDS011;50828;53.756;21.140;2023-03-14T13:21:10;12.70;;;6.60;;
64459;SDS011;50828;53.756;21.140;2023-03-14T13:26:21;12.60;;;6.10;;
64459;SDS011;50828;53.756;21.140;2023-03-14T13:31:32;12.60;;;6.20;;
64459;SDS011;50828;53.756;21.140;2023-03-14T13:36:41;11.10;;;6.40;;
64459;SDS011;50828;53.756;21.140;2023-03-14T13:41:49;15.10;;;5.80;;
64459;SDS011;50828;53.756;21.140;2023-03-14T13:46:59;11.80;;;6.00;;
64459;SDS011;50828;53.756;21.140;2023-03-14T13:57:46;12.00;;;5.80;;
64459;SDS011;50828;53.756;21.140;2023-03-14T14:02:59;11.60;;;6.50;;
64459;SDS011;50828;53.756;21.140;2023-03-14T14:08:10;14.20;;;6.50;;
64459;SDS011;50828;53.756;21.140;2023-03-14T14:13:21;15.80;;;6.20;;
64459;SDS011;50828;53.756;21.140;2023-03-14T14:18:32;11.30;;;6.90;;
64459;SDS011;50828;53.756;21.140;2023-03-14T14:23:42;12.30;;;6.10;;
64459;SDS011;50828;53.756;21.140;2023-03-14T14:29:00;10.90;;;6.20;;
64459;SDS011;50828;53.756;21.140;2023-03-14T14:34:19;14.00;;;6.10;;
64459;SDS011;50828;53.756;21.140;2023-03-14T14:39:30;14.40;;;5.80;;
64459;SDS011;50828;53.756;21.140;2023-03-14T14:44:39;14.70;;;6.70;;
64459;SDS011;50828;53.756;21.140;2023-03-14T14:49:49;15.50;;;7.10;;
64459;SDS011;50828;53.756;21.140;2023-03-14T14:55:00;11.30;;;6.70;;
64459;SDS011;50828;53.756;21.140;2023-03-14T15:00:17;14.90;;;6.60;;
64459;SDS011;50828;53.756;21.140;2023-03-14T15:05:27;10.80;;;6.30;;
64459;SDS011;50828;53.756;21.140;2023-03-14T15:10:41;10.60;;;6.60;;
64459;SDS011;50828;53.756;21.140;2023-03-14T15:15:50;15.70;;;7.00;;
64459;SDS011;50828;53.756;21.140;2023-03-14T15:21:00;13.80;;;7.90;;
64459;SDS011;50828;53.756;21.140;2023-03-14T15:26:11;12.90;;;7.10;;
64459;SDS011;50828;53.756;21.140;2023-03-14T15:31:22;16.00;;;7.20;;
64459;SDS011;50828;53.756;21.140;2023-03-14T15:36:31;16.60;;;7.60;;
64459;SDS011;50828;53.756;21.140;2023-03-14T15:41:41;19.60;;;8.10;;
64459;SDS011;50828;53.756;21.140;2023-03-14T15:46:50;10.50;;;6.60;;
64459;SDS011;50828;53.756;21.140;2023-03-14T15:51:59;14.20;;;6.90;;
64459;SDS011;50828;53.756;21.140;2023-03-14T15:57:09;11.20;;;6.70;;
64459;SDS011;50828;53.756;21.140;2023-03-14T16:02:19;16.10;;;7.20;;
64459;SDS011;50828;53.756;21.140;2023-03-14T16:07:27;15.50;;;8.20;;
64459;SDS011;50828;53.756;21.140;2023-03-14T16:12:37;16.20;;;7.70;;
64459;SDS011;50828;53.756;21.140;2023-03-14T16:17:46;17.50;;;8.40;;
64459;SDS011;50828;53.756;21.140;2023-03-14T16:22:58;20.30;;;7.70;;
64459;SDS011;50828;53.756;21.140;2023-03-14T16:28:06;16.90;;;7.90;;
64459;SDS011;50828;53.756;21.140;2023-03-14T16:33:15;18.90;;;8.40;;
64459;SDS011;50828;53.756;21.140;2023-03-14T16:38:24;15.20;;;8.00;;
64459;SDS011;50828;53.756;21.140;2023-03-14T16:43:37;19.40;;;7.80;;
64459;SDS011;50828;53.756;21.140;2023-03-14T16:48:47;14.30;;;8.10;;
64459;SDS011;50828;53.756;21.140;2023-03-14T16:53:55;15.80;;;8.20;;
64459;SDS011;50828;53.756;21.140;2023-03-14T16:59:04;17.10;;;8.10;;
64459;SDS011;50828;53.756;21.140;2023-03-14T17:04:13;23.30;;;8.90;;
64459;SDS011;50828;53.756;21.140;2023-03-14T17:09:21;17.50;;;9.20;;
64459;SDS011;50828;53.756;21.140;2023-03-14T17:14:30;17.80;;;8.20;;
64459;SDS011;50828;53.756;21.140;2023-03-14T17:19:38;17.50;;;8.50;;
64459;SDS011;50828;53.756;21.140;2023-03-14T17:24:46;18.30;;;8.40;;
64459;SDS011;50828;53.756;21.140;2023-03-14T17:29:54;16.50;;;8.20;;
64459;SDS011;50828;53.756;21.140;2023-03-14T17:35:03;15.90;;;8.60;;
64459;SDS011;50828;53.756;21.140;2023-03-14T17:40:12;20.00;;;8.20;;
64459;SDS011;50828;53.756;21.140;2023-03-14T17:45:21;18.80;;;8.90;;
64459;SDS011;50828;53.756;21.140;2023-03-14T17:50:29;15.60;;;9.60;;
64459;SDS011;50828;53.756;21.140;2023-03-14T17:55:37;22.10;;;9.60;;
64459;SDS011;50828;53.756;21.140;2023-03-14T18:00:46;19.80;;;9.10;;
64459;SDS011;50828;53.756;21.140;2023-03-14T18:05:55;16.30;;;9.50;;
64459;SDS011;50828;53.756;21.140;2023-03-14T18:11:02;21.90;;;9.90;;
64459;SDS011;50828;53.756;21.140;2023-03-14T18:16:11;19.50;;;9.40;;
64459;SDS011;50828;53.756;21.140;2023-03-14T18:21:21;23.40;;;9.90;;
64459;SDS011;50828;53.756;21.140;2023-03-14T18:26:30;19.30;;;10.00;;
64459;SDS011;50828;53.756;21.140;2023-03-14T18:31:40;21.70;;;10.70;;
64459;SDS011;50828;53.756;21.140;2023-03-14T18:36:50;21.20;;;10.20;;
64459;SDS011;50828;53.756;21.140;2023-03-14T18:41:58;22.10;;;10.60;;
64459;SDS011;50828;53.756;21.140;2023-03-14T18:47:07;20.20;;;10.20;;
64459;SDS011;50828;53.756;21.140;2023-03-14T18:52:16;17.70;;;10.80;;
64459;SDS011;50828;53.756;21.140;2023-03-14T18:57:24;20.60;;;10.70;;
64459;SDS011;50828;53.756;21.140;2023-03-14T19:02:33;21.70;;;10.40;;
64459;SDS011;50828;53.756;21.140;2023-03-14T19:07:42;18.30;;;11.10;;
64459;SDS011;50828;53.756;21.140;2023-03-14T19:12:52;23.20;;;10.90;;
64459;SDS011;50828;53.756;21.140;2023-03-14T19:18:01;23.40;;;11.10;;
64459;SDS011;50828;53.756;21.140;2023-03-14T19:23:13;20.30;;;10.30;;
64459;SDS011;50828;53.756;21.140;2023-03-14T19:28:22;23.40;;;11.30;;
64459;SDS011;50828;53.756;21.140;2023-03-14T19:33:31;21.70;;;11.90;;
64459;SDS011;50828;53.756;21.140;2023-03-14T19:38:40;24.60;;;12.10;;
64459;SDS011;50828;53.756;21.140;2023-03-14T19:43:49;28.20;;;12.20;;
64459;SDS011;50828;53.756;21.140;2023-03-14T19:48:58;24.40;;;13.00;;
64459;SDS011;50828;53.756;21.140;2023-03-14T19:54:06;25.90;;;13.00;;
64459;SDS011;50828;53.756;21.140;2023-03-14T19:59:14;25.20;;;13.10;;
64459;SDS011;50828;53.756;21.140;2023-03-14T20:04:23;25.90;;;12.50;;
64459;SDS011;50828;53.756;21.140;2023-03-14T20:09:33;25.00;;;12.50;;
64459;SDS011;50828;53.756;21.140;2023-03-14T20:14:42;25.70;;;12.90;;
64459;SDS011;50828;53.756;21.140;2023-03-14T20:19:50;26.60;;;13.50;;
64459;SDS011;50828;53.756;21.140;2023-03-14T20:24:58;31.30;;;13.90;;
64459;SDS011;50828;53.756;21.140;2023-03-14T20:30:09;28.00;;;13.50;;
64459;SDS011;50828;53.756;21.140;2023-03-14T20:35:20;26.30;;;13.70;;
64459;SDS011;50828;53.756;21.140;2023-03-14T20:40:29;27.30;;;14.00;;
64459;SDS011;50828;53.756;21.140;2023-03-14T20:45:37;28.50;;;12.60;;
64459;SDS011;50828;53.756;21.140;2023-03-14T20:50:46;27.50;;;13.30;;
64459;SDS011;50828;53.756;21.140;2023-03-14T20:55:55;25.70;;;12.90;;
64459;SDS011;50828;53.756;21.140;2023-03-14T21:01:03;25.50;;;12.90;;
64459;SDS011;50828;53.756;21.140;2023-03-14T21:06:11;25.20;;;13.30;;
64459;SDS011;50828;53.756;21.140;2023-03-14T21:11:19;22.30;;;12.20;;
64459;SDS011;50828;53.756;21.140;2023-03-14T21:16:28;23.20;;;12.30;;
64459;SDS011;50828;53.756;21.140;2023-03-14T21:21:36;26.20;;;13.20;;
64459;SDS011;50828;53.756;21.140;2023-03-14T21:26:45;23.60;;;12.10;;
64459;SDS011;50828;53.756;21.140;2023-03-14T21:31:53;25.80;;;13.00;;
64459;SDS011;50828;53.756;21.140;2023-03-14T21:37:02;24.70;;;13.30;;
64459;SDS011;50828;53.756;21.140;2023-03-14T21:42:10;25.80;;;12.70;;
64459;SDS011;50828;53.756;21.140;2023-03-14T21:47:19;25.90;;;12.80;;
64459;SDS011;50828;53.756;21.140;2023-03-14T21:52:28;25.50;;;12.50;;
64459;SDS011;50828;53.756;21.140;2023-03-14T21:57:37;28.70;;;12.90;;
64459;SDS011;50828;53.756;21.140;2023-03-14T22:02:49;24.40;;;12.60;;
64459;SDS011;50828;53.756;21.140;2023-03-14T22:08:18;22.40;;;11.90;;
64459;SDS011;50828;53.756;21.140;2023-03-14T22:13:26;25.00;;;12.20;;
64459;SDS011;50828;53.756;21.140;2023-03-14T22:18:34;32.40;;;12.80;;
64459;SDS011;50828;53.756;21.140;2023-03-14T22:23:41;28.10;;;13.00;;
64459;SDS011;50828;53.756;21.140;2023-03-14T22:28:50;26.20;;;12.80;;
64459;SDS011;50828;53.756;21.140;2023-03-14T22:33:58;29.60;;;14.10;;
64459;SDS011;50828;53.756;21.140;2023-03-14T22:39:06;27.50;;;13.70;;
64459;SDS011;50828;53.756;21.140;2023-03-14T22:44:16;28.30;;;12.40;;
64459;SDS011;50828;53.756;21.140;2023-03-14T22:49:24;23.90;;;12.80;;
64459;SDS011;50828;53.756;21.140;2023-03-14T22:54:33;27.70;;;13.80;;
64459;SDS011;50828;53.756;21.140;2023-03-14T22:59:41;24.30;;;12.80;;
64459;SDS011;50828;53.756;21.140;2023-03-14T23:04:50;27.70;;;13.50;;
64459;SDS011;50828;53.756;21.140;2023-03-14T23:09:58;26.40;;;13.50;;
64459;SDS011;50828;53.756;21.140;2023-03-14T23:15:08;28.40;;;14.00;;
64459;SDS011;50828;53.756;21.140;2023-03-14T23:20:19;14.30;;;6.70;;
64459;SDS011;50828;53.756;21.140;2023-03-14T23:25:26;5.40;;;2.40;;
64459;SDS011;50828;53.756;21.140;2023-03-14T23:30:45;5.90;;;1.80;;
64459;SDS011;50828;53.756;21.140;2023-03-14T23:35:53;2.10;;;1.00;;
64459;SDS011;50828;53.756;21.140;2023-03-14T23:41:01;12.90;;;1.60;;
64459;SDS011;50828;53.756;21.140;2023-03-14T23:46:10;2.40;;;0.70;;
64459;SDS011;50828;53.756;21.140;2023-03-14T23:51:20;1.20;;;0.70;;
64459;SDS011;50828;53.756;21.140;2023-03-14T23:56:29;1.30;;;0.40;;
